This is the latest recevied weather packets stored in our database for station/object F4WDE-10. If no packets are shown the sender has not sent any weather packets the latest 10 day(s).
| Time | Temp. | Humidity | Pressure | Rain* | Wind** | Luminosity | Snow |
|---|---|---|---|---|---|---|---|
| 1777812771 | 23.89° C | 45% | 965 hPa | - | - | - | - |
| 1777811870 | 23.33° C | 48% | 965 hPa | - | - | - | - |
| 1777810969 | 23.33° C | 49% | 965 hPa | - | - | - | - |
| 1777810067 | 21.11° C | 54% | 965 hPa | - | - | - | - |
| 1777809165 | 21.67° C | 52% | 965 hPa | - | - | - | - |
| 1777808264 | 23.89° C | 45% | 965 hPa | - | - | - | - |
| 1777807363 | 25° C | 42% | 965 hPa | - | - | - | - |
| 1777806462 | 24.44° C | 41% | 965 hPa | - | - | - | - |
| 1777805561 | 24.44° C | 40% | 965 hPa | - | - | - | - |
| 1777804660 | 23.89° C | 39% | 965 hPa | - | - | - | - |
| 1777803759 | 24.44° C | 38% | 965 hPa | - | - | - | - |
| 1777802858 | 23.89° C | 41% | 965 hPa | - | - | - | - |
| 1777801956 | 23.33° C | 40% | 966 hPa | - | - | - | - |
| 1777801055 | 21.67° C | 45% | 966 hPa | - | - | - | - |
| 1777800153 | 22.78° C | 42% | 966 hPa | - | - | - | - |
| 1777799252 | 21.67° C | 42% | 966 hPa | - | - | - | - |
| 1777798351 | 20.56° C | 46% | 965 hPa | - | - | - | - |
| 1777797450 | 20° C | 46% | 965 hPa | - | - | - | - |
| 1777796549 | 20° C | 53% | 965 hPa | - | - | - | - |
| 1777795648 | 18.33° C | 56% | 965 hPa | - | - | - | - |
| 1777794747 | 18.33° C | 55% | 965 hPa | - | - | - | - |
| 1777793845 | 18.33° C | 57% | 965 hPa | - | - | - | - |
| 1777792944 | 17.78° C | 58% | 965 hPa | - | - | - | - |
| 1777792043 | 17.22° C | 61% | 965 hPa | - | - | - | - |
| 1777791142 | 17.22° C | 65% | 965 hPa | - | - | - | - |
* Rain since midnight (hover to see other rain measurements)
** Current wind speed in m/s (hover to see current wind gust speed)